EZY3PX EDDF-EDDB
Flight info
| Callsign | EZY3PX |
|---|---|
| Flight time | 1h 24m |
| Altitude | 31000 |
| Route | TOBAK3W/25C TOBAK N858 SWALM T201 TAMEB T278 KLF KLF1R |
| Aircraft | A20N/M-SDE2E3FGHIRWXY/LB1 |
Departure
| Time | 2026-04-17 09:07 |
|---|---|
| Airport | Frankfurt Main Airport (EDDF) |
Arrival
| Time | 2026-04-17 10:32 |
|---|---|
| Airport | Berlin Brandenburg Airport (EDDB) |
| Time | Latitude | Longitude | Altitude | Speed | Heading |
|---|---|---|---|---|---|
| 2026-04-17 08:41 | 50.04848 | 8.58904 | 357 ft | 0 kts | 340° |
| 2026-04-17 09:00 | 50.04827 | 8.58916 | 357 ft | 4 kts | 340° |
| 2026-04-17 09:01 | 50.04801 | 8.58931 | 353 ft | 4 kts | 340° |
| 2026-04-17 09:01 | 50.04776 | 8.58945 | 351 ft | 4 kts | 339° |
| 2026-04-17 09:01 | 50.04763 | 8.58953 | 359 ft | 1 kts | 339° |
| 2026-04-17 09:03 | 50.04763 | 8.58952 | 359 ft | 0 kts | 339° |
| 2026-04-17 09:04 | 50.04764 | 8.58952 | 359 ft | 0 kts | 335° |
| 2026-04-17 09:05 | 50.04765 | 8.58934 | 351 ft | 5 kts | 274° |
| 2026-04-17 09:05 | 50.04743 | 8.58839 | 350 ft | 11 kts | 248° |
| 2026-04-17 09:05 | 50.04694 | 8.58767 | 351 ft | 13 kts | 190° |
| 2026-04-17 09:05 | 50.04592 | 8.58723 | 356 ft | 16 kts | 217° |
| 2026-04-17 09:06 | 50.04506 | 8.58615 | 353 ft | 16 kts | 221° |
| 2026-04-17 09:06 | 50.04479 | 8.58551 | 354 ft | 0 kts | 249° |
| 2026-04-17 09:06 | 50.04478 | 8.58549 | 354 ft | 0 kts | 249° |
| 2026-04-17 09:06 | 50.04423 | 8.58321 | 353 ft | 60 kts | 250° |
| 2026-04-17 09:07 | 50.04184 | 8.57325 | 355 ft | 132 kts | 250° |
| 2026-04-17 09:07 | 50.03775 | 8.55750 | 508 ft | 168 kts | 246° |
| 2026-04-17 09:07 | 50.03343 | 8.54088 | 1277 ft | 165 kts | 249° |
| 2026-04-17 09:07 | 50.02961 | 8.52417 | 2140 ft | 165 kts | 249° |
| 2026-04-17 09:08 | 50.02480 | 8.50612 | 2738 ft | 197 kts | 238° |
| 2026-04-17 09:08 | 50.01913 | 8.49448 | 3219 ft | 209 kts | 223° |
| 2026-04-17 09:08 | 50.00680 | 8.48240 | 4187 ft | 212 kts | 199° |
| 2026-04-17 09:08 | 49.99241 | 8.47713 | 5198 ft | 215 kts | 189° |
| 2026-04-17 09:09 | 49.97751 | 8.47385 | 6136 ft | 217 kts | 187° |
| 2026-04-17 09:09 | 49.96247 | 8.47035 | 7097 ft | 220 kts | 192° |
| 2026-04-17 09:09 | 49.94712 | 8.46445 | 7757 ft | 237 kts | 195° |
| 2026-04-17 09:09 | 49.93087 | 8.45666 | 8442 ft | 250 kts | 202° |
| 2026-04-17 09:10 | 49.90740 | 8.41803 | 10147 ft | 260 kts | 257° |
| 2026-04-17 09:10 | 49.90759 | 8.39017 | 10981 ft | 262 kts | 287° |
| 2026-04-17 09:10 | 49.91685 | 8.36608 | 11868 ft | 264 kts | 317° |
| 2026-04-17 09:11 | 49.93236 | 8.35072 | 12729 ft | 269 kts | 334° |
| 2026-04-17 09:11 | 49.95020 | 8.33880 | 13166 ft | 291 kts | 337° |
| 2026-04-17 09:11 | 49.96977 | 8.32668 | 13504 ft | 315 kts | 337° |
| 2026-04-17 09:11 | 49.99080 | 8.31353 | 13848 ft | 337 kts | 337° |
| 2026-04-17 09:12 | 50.01315 | 8.29943 | 14194 ft | 356 kts | 338° |
| 2026-04-17 09:12 | 50.03740 | 8.28891 | 14746 ft | 367 kts | 350° |
| 2026-04-17 09:12 | 50.06313 | 8.28842 | 15464 ft | 375 kts | 6° |
| 2026-04-17 09:12 | 50.08868 | 8.29804 | 16230 ft | 381 kts | 15° |
| 2026-04-17 09:13 | 50.11400 | 8.31103 | 16971 ft | 385 kts | 17° |
| 2026-04-17 09:13 | 50.13912 | 8.32449 | 17694 ft | 389 kts | 17° |
| 2026-04-17 09:13 | 50.16519 | 8.33843 | 18425 ft | 393 kts | 17° |
| 2026-04-17 09:13 | 50.19121 | 8.35226 | 19062 ft | 397 kts | 16° |
| 2026-04-17 09:14 | 50.21712 | 8.36597 | 19673 ft | 400 kts | 16° |
| 2026-04-17 09:14 | 50.24361 | 8.37996 | 20277 ft | 404 kts | 16° |
| 2026-04-17 09:14 | 50.27024 | 8.39471 | 20878 ft | 409 kts | 19° |
| 2026-04-17 09:14 | 50.29565 | 8.41515 | 21452 ft | 416 kts | 31° |
| 2026-04-17 09:15 | 50.31877 | 8.44291 | 22047 ft | 421 kts | 37° |
| 2026-04-17 09:15 | 50.34098 | 8.47327 | 22632 ft | 425 kts | 39° |
| 2026-04-17 09:15 | 50.36314 | 8.50426 | 23216 ft | 429 kts | 39° |
| 2026-04-17 09:15 | 50.38546 | 8.53552 | 23772 ft | 432 kts | 39° |
| 2026-04-17 09:16 | 50.40800 | 8.56704 | 24239 ft | 435 kts | 39° |
| 2026-04-17 09:16 | 50.43068 | 8.59872 | 24696 ft | 438 kts | 38° |
| 2026-04-17 09:16 | 50.45369 | 8.63020 | 25159 ft | 440 kts | 37° |
| 2026-04-17 09:16 | 50.47717 | 8.66125 | 25616 ft | 442 kts | 37° |
| 2026-04-17 09:17 | 50.50085 | 8.69236 | 26065 ft | 445 kts | 37° |
| 2026-04-17 09:17 | 50.52466 | 8.72365 | 26509 ft | 447 kts | 37° |
| 2026-04-17 09:17 | 50.54835 | 8.75548 | 26920 ft | 451 kts | 39° |
| 2026-04-17 09:17 | 50.57008 | 8.79146 | 27330 ft | 457 kts | 48° |
| 2026-04-17 09:18 | 50.58833 | 8.83300 | 27726 ft | 463 kts | 55° |
| 2026-04-17 09:18 | 50.60481 | 8.87663 | 28112 ft | 467 kts | 57° |
| 2026-04-17 09:18 | 50.62060 | 8.92149 | 28493 ft | 470 kts | 58° |
| 2026-04-17 09:18 | 50.63608 | 8.96694 | 28867 ft | 472 kts | 58° |
| 2026-04-17 09:19 | 50.65154 | 9.01272 | 29259 ft | 474 kts | 58° |
| 2026-04-17 09:19 | 50.66701 | 9.05845 | 29789 ft | 472 kts | 58° |
| 2026-04-17 09:19 | 50.68248 | 9.10397 | 30320 ft | 470 kts | 58° |
| 2026-04-17 09:19 | 50.69797 | 9.14929 | 30752 ft | 469 kts | 58° |
| 2026-04-17 09:20 | 50.71203 | 9.19511 | 31111 ft | 472 kts | 64° |
| 2026-04-17 09:20 | 50.72264 | 9.24506 | 31223 ft | 475 kts | 70° |
| 2026-04-17 09:20 | 50.73936 | 9.34575 | 31228 ft | 474 kts | 73° |
| 2026-04-17 09:21 | 50.75422 | 9.44644 | 31229 ft | 474 kts | 73° |
| 2026-04-17 09:21 | 50.76901 | 9.54785 | 31230 ft | 474 kts | 73° |
| 2026-04-17 09:22 | 50.78393 | 9.64928 | 31226 ft | 474 kts | 73° |
| 2026-04-17 09:22 | 50.79889 | 9.75067 | 31228 ft | 474 kts | 73° |
| 2026-04-17 09:23 | 50.81385 | 9.85231 | 31232 ft | 474 kts | 73° |
| 2026-04-17 09:23 | 50.82871 | 9.95386 | 31232 ft | 474 kts | 73° |
| 2026-04-17 09:24 | 50.84207 | 10.05620 | 31233 ft | 478 kts | 80° |
| 2026-04-17 09:24 | 50.84184 | 10.16189 | 31229 ft | 483 kts | 90° |
| 2026-04-17 09:25 | 50.83632 | 10.26782 | 31235 ft | 484 kts | 92° |
| 2026-04-17 09:25 | 50.82969 | 10.37385 | 31237 ft | 485 kts | 92° |
| 2026-04-17 09:26 | 50.82309 | 10.47994 | 31240 ft | 485 kts | 92° |
| 2026-04-17 09:26 | 50.81662 | 10.58609 | 31243 ft | 485 kts | 92° |
| 2026-04-17 09:27 | 50.81386 | 10.69209 | 31249 ft | 480 kts | 81° |
| 2026-04-17 09:27 | 50.83013 | 10.79245 | 31264 ft | 467 kts | 61° |
| 2026-04-17 09:28 | 50.85878 | 10.88433 | 31266 ft | 465 kts | 57° |
| 2026-04-17 09:28 | 50.88955 | 10.97428 | 31265 ft | 464 kts | 56° |
| 2026-04-17 09:29 | 50.92034 | 11.06418 | 31268 ft | 464 kts | 56° |
| 2026-04-17 09:29 | 50.95075 | 11.15446 | 31263 ft | 464 kts | 57° |
| 2026-04-17 09:30 | 50.98090 | 11.24493 | 31262 ft | 464 kts | 57° |
| 2026-04-17 09:30 | 51.01076 | 11.33496 | 31259 ft | 464 kts | 57° |
| 2026-04-17 09:31 | 51.04075 | 11.42568 | 31260 ft | 464 kts | 57° |
| 2026-04-17 09:31 | 51.07065 | 11.51642 | 31257 ft | 463 kts | 57° |
| 2026-04-17 09:32 | 51.10045 | 11.60728 | 31256 ft | 463 kts | 57° |
| 2026-04-17 09:32 | 51.13016 | 11.69820 | 31256 ft | 463 kts | 57° |
| 2026-04-17 09:33 | 51.15980 | 11.78936 | 31254 ft | 463 kts | 57° |
| 2026-04-17 09:33 | 51.18931 | 11.88050 | 31261 ft | 462 kts | 57° |
| 2026-04-17 09:34 | 51.22354 | 11.96548 | 31273 ft | 450 kts | 43° |
| 2026-04-17 09:34 | 51.26526 | 12.03975 | 31279 ft | 448 kts | 40° |
| 2026-04-17 09:35 | 51.30819 | 12.11168 | 31286 ft | 447 kts | 40° |
| 2026-04-17 09:35 | 51.35129 | 12.18358 | 31295 ft | 449 kts | 40° |
| 2026-04-17 09:36 | 51.39433 | 12.25605 | 31296 ft | 449 kts | 40° |
| 2026-04-17 09:36 | 51.43718 | 12.32878 | 31293 ft | 449 kts | 40° |
| 2026-04-17 09:37 | 51.48000 | 12.40174 | 31289 ft | 449 kts | 40° |
| 2026-04-17 09:37 | 51.52260 | 12.47455 | 31280 ft | 446 kts | 40° |
| 2026-04-17 09:38 | 51.56507 | 12.54732 | 31279 ft | 446 kts | 40° |
| 2026-04-17 09:38 | 51.60714 | 12.61958 | 31258 ft | 446 kts | 40° |
| 2026-04-17 09:39 | 51.64945 | 12.69247 | 31250 ft | 445 kts | 40° |
| 2026-04-17 09:39 | 51.69167 | 12.76542 | 31252 ft | 445 kts | 40° |
| 2026-04-17 09:40 | 51.73382 | 12.83847 | 31268 ft | 445 kts | 40° |
| 2026-04-17 09:40 | 51.77488 | 12.91344 | 31266 ft | 451 kts | 48° |
| 2026-04-17 09:41 | 51.80905 | 12.99897 | 31264 ft | 454 kts | 51° |
| 2026-04-17 09:41 | 51.84217 | 13.08609 | 31266 ft | 455 kts | 52° |
| 2026-04-17 09:42 | 51.87496 | 13.17347 | 31268 ft | 454 kts | 52° |
| 2026-04-17 09:42 | 51.90764 | 13.26108 | 31263 ft | 454 kts | 52° |
| 2026-04-17 09:43 | 51.94021 | 13.34878 | 31261 ft | 454 kts | 52° |
| 2026-04-17 09:43 | 51.97229 | 13.43544 | 31257 ft | 454 kts | 52° |
| 2026-04-17 09:44 | 52.00492 | 13.52395 | 31257 ft | 454 kts | 52° |
| 2026-04-17 09:44 | 52.02250 | 13.56515 | 31250 ft | 442 kts | 39° |
| 2026-04-17 09:44 | 52.04592 | 13.59574 | 31258 ft | 426 kts | 24° |
| 2026-04-17 09:45 | 52.09829 | 13.63942 | 31254 ft | 424 kts | 20° |
| 2026-04-17 09:45 | 52.15054 | 13.68407 | 31264 ft | 425 kts | 22° |
| 2026-04-17 09:46 | 52.20236 | 13.73050 | 31252 ft | 425 kts | 22° |
| 2026-04-17 09:46 | 52.25404 | 13.77762 | 31266 ft | 425 kts | 23° |
| 2026-04-17 09:47 | 52.30552 | 13.82488 | 31259 ft | 424 kts | 23° |
| 2026-04-17 09:47 | 52.35695 | 13.87266 | 31259 ft | 425 kts | 24° |
| 2026-04-17 09:48 | 52.38348 | 13.89209 | 31265 ft | 412 kts | 9° |
| 2026-04-17 09:48 | 52.41145 | 13.89664 | 31263 ft | 401 kts | 352° |
| 2026-04-17 09:48 | 52.43827 | 13.88641 | 31262 ft | 395 kts | 335° |
| 2026-04-17 09:48 | 52.46141 | 13.86250 | 31257 ft | 395 kts | 319° |
| 2026-04-17 09:49 | 52.47861 | 13.82728 | 31264 ft | 401 kts | 302° |
| 2026-04-17 09:49 | 52.48818 | 13.78399 | 31261 ft | 412 kts | 285° |
| 2026-04-17 09:49 | 52.48903 | 13.73644 | 31262 ft | 425 kts | 269° |
| 2026-04-17 09:49 | 52.48077 | 13.68907 | 31264 ft | 441 kts | 252° |
| 2026-04-17 09:50 | 52.46417 | 13.64666 | 31259 ft | 457 kts | 236° |
| 2026-04-17 09:50 | 52.43982 | 13.61192 | 31264 ft | 473 kts | 219° |
| 2026-04-17 09:50 | 52.38767 | 13.54855 | 31267 ft | 459 kts | 235° |
| 2026-04-17 09:51 | 52.35192 | 13.46439 | 31265 ft | 447 kts | 247° |
| 2026-04-17 09:51 | 52.33331 | 13.42309 | 31264 ft | 461 kts | 231° |
| 2026-04-17 09:51 | 52.30742 | 13.39112 | 31266 ft | 475 kts | 215° |
| 2026-04-17 09:52 | 52.27629 | 13.37131 | 31262 ft | 488 kts | 198° |
| 2026-04-17 09:52 | 52.24220 | 13.36553 | 31259 ft | 498 kts | 181° |
| 2026-04-17 09:52 | 52.20780 | 13.37457 | 31261 ft | 505 kts | 165° |
| 2026-04-17 09:52 | 52.17569 | 13.39792 | 31259 ft | 508 kts | 148° |
| 2026-04-17 09:53 | 52.14827 | 13.43389 | 31262 ft | 507 kts | 132° |
| 2026-04-17 09:53 | 52.12431 | 13.47608 | 31257 ft | 508 kts | 135° |
| 2026-04-17 09:53 | 52.09575 | 13.50985 | 31259 ft | 509 kts | 152° |
| 2026-04-17 09:53 | 52.06351 | 13.53331 | 31255 ft | 508 kts | 161° |
| 2026-04-17 09:54 | 51.99575 | 13.56510 | 31252 ft | 507 kts | 169° |
| 2026-04-17 09:54 | 51.92682 | 13.58875 | 31257 ft | 506 kts | 173° |
| 2026-04-17 09:55 | 51.85730 | 13.60545 | 31252 ft | 504 kts | 176° |
| 2026-04-17 09:55 | 51.78753 | 13.61524 | 31255 ft | 502 kts | 180° |
| 2026-04-17 09:56 | 51.71775 | 13.61822 | 31252 ft | 501 kts | 184° |
| 2026-04-17 09:56 | 51.64824 | 13.61447 | 31252 ft | 499 kts | 188° |
| 2026-04-17 09:57 | 51.59093 | 13.60637 | 31249 ft | 497 kts | 191° |
| 2026-04-17 09:57 | 51.52264 | 13.59075 | 31248 ft | 494 kts | 194° |
| 2026-04-17 09:58 | 51.45538 | 13.56892 | 31248 ft | 492 kts | 198° |
| 2026-04-17 09:58 | 51.38935 | 13.54113 | 31254 ft | 489 kts | 202° |
| 2026-04-17 09:59 | 51.32475 | 13.50763 | 31254 ft | 487 kts | 205° |
| 2026-04-17 09:59 | 51.26183 | 13.46870 | 31258 ft | 484 kts | 208° |
| 2026-04-17 10:00 | 51.20069 | 13.42463 | 31260 ft | 481 kts | 212° |
| 2026-04-17 10:00 | 51.14146 | 13.37565 | 31252 ft | 478 kts | 215° |
| 2026-04-17 10:01 | 51.08434 | 13.32212 | 31287 ft | 474 kts | 219° |
| 2026-04-17 10:01 | 51.05669 | 13.29370 | 31401 ft | 473 kts | 220° |
| 2026-04-17 10:01 | 51.02960 | 13.26409 | 31509 ft | 471 kts | 222° |
| 2026-04-17 10:02 | 51.00356 | 13.23382 | 31613 ft | 469 kts | 224° |
| 2026-04-17 10:02 | 50.97757 | 13.20166 | 31731 ft | 467 kts | 225° |
| 2026-04-17 10:02 | 50.95298 | 13.16924 | 31835 ft | 464 kts | 227° |
| 2026-04-17 10:02 | 50.92886 | 13.13537 | 31930 ft | 462 kts | 229° |
| 2026-04-17 10:03 | 50.90557 | 13.10043 | 32056 ft | 460 kts | 231° |
| 2026-04-17 10:03 | 50.88320 | 13.06454 | 32165 ft | 457 kts | 233° |
| 2026-04-17 10:03 | 50.84121 | 12.98972 | 32371 ft | 452 kts | 237° |
| 2026-04-17 10:04 | 50.82173 | 12.95096 | 32479 ft | 450 kts | 239° |
| 2026-04-17 10:04 | 50.80325 | 12.91118 | 32575 ft | 447 kts | 241° |
| 2026-04-17 10:04 | 50.78591 | 12.87065 | 32683 ft | 444 kts | 244° |
| 2026-04-17 10:04 | 50.76970 | 12.82929 | 32786 ft | 441 kts | 246° |
| 2026-04-17 10:05 | 50.75467 | 12.78715 | 32889 ft | 439 kts | 248° |
| 2026-04-17 10:05 | 50.74089 | 12.74434 | 32985 ft | 436 kts | 250° |
| 2026-04-17 10:05 | 50.71977 | 12.65676 | 32927 ft | 411 kts | 263° |
| 2026-04-17 10:06 | 50.71554 | 12.61286 | 32465 ft | 402 kts | 271° |
| 2026-04-17 10:06 | 50.71470 | 12.56806 | 31682 ft | 415 kts | 276° |
| 2026-04-17 10:06 | 50.71768 | 12.52261 | 31118 ft | 418 kts | 285° |
| 2026-04-17 10:06 | 50.72534 | 12.47841 | 30836 ft | 417 kts | 294° |
| 2026-04-17 10:07 | 50.73774 | 12.43727 | 30616 ft | 414 kts | 303° |
| 2026-04-17 10:07 | 50.75461 | 12.40074 | 30361 ft | 412 kts | 313° |
| 2026-04-17 10:07 | 50.77556 | 12.36979 | 30077 ft | 413 kts | 322° |
| 2026-04-17 10:07 | 50.79983 | 12.34553 | 29791 ft | 415 kts | 332° |
| 2026-04-17 10:08 | 50.82677 | 12.32866 | 29510 ft | 418 kts | 342° |
| 2026-04-17 10:08 | 50.85547 | 12.31992 | 29230 ft | 423 kts | 352° |
| 2026-04-17 10:08 | 50.88511 | 12.31981 | 28943 ft | 430 kts | 1° |
| 2026-04-17 10:08 | 50.91465 | 12.32870 | 28686 ft | 437 kts | 12° |
| 2026-04-17 10:09 | 50.94297 | 12.34715 | 28406 ft | 445 kts | 24° |
| 2026-04-17 10:09 | 50.96934 | 12.37347 | 28154 ft | 450 kts | 29° |
| 2026-04-17 10:09 | 50.99508 | 12.40186 | 27886 ft | 452 kts | 30° |
| 2026-04-17 10:09 | 51.02080 | 12.43061 | 27622 ft | 453 kts | 30° |
| 2026-04-17 10:10 | 51.04663 | 12.45942 | 27362 ft | 454 kts | 30° |
| 2026-04-17 10:10 | 51.07251 | 12.48822 | 27106 ft | 455 kts | 30° |
| 2026-04-17 10:10 | 51.09847 | 12.51705 | 26849 ft | 455 kts | 30° |
| 2026-04-17 10:11 | 51.15051 | 12.57487 | 26343 ft | 457 kts | 30° |
| 2026-04-17 10:11 | 51.17659 | 12.60387 | 26096 ft | 458 kts | 30° |
| 2026-04-17 10:11 | 51.20276 | 12.63301 | 25849 ft | 459 kts | 30° |
| 2026-04-17 10:11 | 51.22893 | 12.66219 | 25596 ft | 459 kts | 30° |
| 2026-04-17 10:12 | 51.25506 | 12.69136 | 25349 ft | 458 kts | 31° |
| 2026-04-17 10:12 | 51.28114 | 12.72054 | 25117 ft | 457 kts | 31° |
| 2026-04-17 10:12 | 51.30711 | 12.74961 | 24877 ft | 456 kts | 31° |
| 2026-04-17 10:12 | 51.33271 | 12.77830 | 24643 ft | 454 kts | 31° |
| 2026-04-17 10:13 | 51.35852 | 12.80728 | 24410 ft | 453 kts | 31° |
| 2026-04-17 10:13 | 51.38425 | 12.83622 | 24178 ft | 452 kts | 31° |
| 2026-04-17 10:13 | 51.40962 | 12.86484 | 23866 ft | 440 kts | 31° |
| 2026-04-17 10:13 | 51.43437 | 12.89283 | 23342 ft | 430 kts | 31° |
| 2026-04-17 10:14 | 51.45849 | 12.92014 | 22829 ft | 421 kts | 31° |
| 2026-04-17 10:14 | 51.48218 | 12.94699 | 22350 ft | 414 kts | 31° |
| 2026-04-17 10:14 | 51.50567 | 12.97361 | 21868 ft | 414 kts | 31° |
| 2026-04-17 10:14 | 51.52916 | 13.00025 | 21385 ft | 412 kts | 31° |
| 2026-04-17 10:15 | 51.55252 | 13.02676 | 20905 ft | 410 kts | 31° |
| 2026-04-17 10:15 | 51.57568 | 13.05309 | 20424 ft | 406 kts | 31° |
| 2026-04-17 10:15 | 51.59866 | 13.07923 | 19946 ft | 403 kts | 31° |
| 2026-04-17 10:15 | 51.62150 | 13.10523 | 19471 ft | 400 kts | 31° |
| 2026-04-17 10:16 | 51.64415 | 13.13107 | 18998 ft | 398 kts | 31° |
| 2026-04-17 10:16 | 51.66660 | 13.15670 | 18530 ft | 395 kts | 31° |
| 2026-04-17 10:16 | 51.68894 | 13.18222 | 17990 ft | 392 kts | 31° |
| 2026-04-17 10:16 | 51.71115 | 13.20763 | 17521 ft | 390 kts | 32° |
| 2026-04-17 10:17 | 51.73316 | 13.23284 | 17059 ft | 387 kts | 32° |
| 2026-04-17 10:17 | 51.75509 | 13.25799 | 16598 ft | 385 kts | 32° |
| 2026-04-17 10:17 | 51.77686 | 13.28298 | 16131 ft | 383 kts | 32° |
| 2026-04-17 10:17 | 51.79850 | 13.30784 | 15665 ft | 381 kts | 32° |
| 2026-04-17 10:18 | 51.82003 | 13.33262 | 15209 ft | 379 kts | 32° |
| 2026-04-17 10:18 | 51.84143 | 13.35726 | 14759 ft | 377 kts | 32° |
| 2026-04-17 10:18 | 51.86268 | 13.38176 | 14312 ft | 375 kts | 33° |
| 2026-04-17 10:18 | 51.88380 | 13.40618 | 13825 ft | 373 kts | 33° |
| 2026-04-17 10:19 | 51.90492 | 13.43059 | 13345 ft | 370 kts | 33° |
| 2026-04-17 10:19 | 51.92552 | 13.45442 | 12896 ft | 367 kts | 33° |
| 2026-04-17 10:19 | 51.94615 | 13.47831 | 12453 ft | 365 kts | 33° |
| 2026-04-17 10:19 | 51.96647 | 13.50189 | 11983 ft | 363 kts | 33° |
| 2026-04-17 10:20 | 51.98668 | 13.52534 | 11562 ft | 360 kts | 33° |
| 2026-04-17 10:20 | 52.00726 | 13.54921 | 11100 ft | 361 kts | 33° |
| 2026-04-17 10:20 | 52.02791 | 13.57079 | 10686 ft | 349 kts | 28° |
| 2026-04-17 10:20 | 52.04878 | 13.59024 | 10314 ft | 348 kts | 27° |
| 2026-04-17 10:21 | 52.06991 | 13.60945 | 9905 ft | 333 kts | 27° |
| 2026-04-17 10:21 | 52.08916 | 13.62697 | 9596 ft | 310 kts | 27° |
| 2026-04-17 10:21 | 52.10736 | 13.64355 | 9291 ft | 290 kts | 27° |
| 2026-04-17 10:21 | 52.12460 | 13.65925 | 8839 ft | 279 kts | 27° |
| 2026-04-17 10:22 | 52.14130 | 13.67444 | 8423 ft | 271 kts | 27° |
| 2026-04-17 10:22 | 52.15750 | 13.68920 | 8076 ft | 263 kts | 27° |
| 2026-04-17 10:22 | 52.17317 | 13.70350 | 7758 ft | 255 kts | 27° |
| 2026-04-17 10:22 | 52.18842 | 13.71745 | 7460 ft | 251 kts | 27° |
| 2026-04-17 10:23 | 52.20370 | 13.73142 | 7155 ft | 253 kts | 27° |
| 2026-04-17 10:23 | 52.21897 | 13.74540 | 6831 ft | 251 kts | 27° |
| 2026-04-17 10:23 | 52.23413 | 13.75930 | 6518 ft | 249 kts | 27° |
| 2026-04-17 10:23 | 52.24925 | 13.77318 | 6203 ft | 249 kts | 27° |
| 2026-04-17 10:24 | 52.26425 | 13.78697 | 5910 ft | 248 kts | 27° |
| 2026-04-17 10:24 | 52.27922 | 13.80075 | 5589 ft | 246 kts | 27° |
| 2026-04-17 10:24 | 52.29416 | 13.81447 | 5287 ft | 245 kts | 27° |
| 2026-04-17 10:24 | 52.30897 | 13.82811 | 4983 ft | 244 kts | 27° |
| 2026-04-17 10:25 | 52.32374 | 13.84173 | 4677 ft | 243 kts | 27° |
| 2026-04-17 10:25 | 52.33836 | 13.85518 | 4421 ft | 238 kts | 27° |
| 2026-04-17 10:25 | 52.35245 | 13.86819 | 4292 ft | 227 kts | 27° |
| 2026-04-17 10:25 | 52.36657 | 13.87902 | 4065 ft | 223 kts | 14° |
| 2026-04-17 10:26 | 52.38173 | 13.88025 | 3900 ft | 218 kts | 347° |
| 2026-04-17 10:26 | 52.39604 | 13.87329 | 3735 ft | 211 kts | 340° |
| 2026-04-17 10:26 | 52.40952 | 13.86450 | 3499 ft | 208 kts | 334° |
| 2026-04-17 10:26 | 52.42092 | 13.85035 | 3232 ft | 206 kts | 310° |
| 2026-04-17 10:27 | 52.42679 | 13.82911 | 3035 ft | 210 kts | 279° |
| 2026-04-17 10:27 | 52.42538 | 13.80579 | 2997 ft | 201 kts | 256° |
| 2026-04-17 10:27 | 52.42084 | 13.78482 | 3003 ft | 191 kts | 250° |
| 2026-04-17 10:27 | 52.41524 | 13.76521 | 2998 ft | 190 kts | 239° |
| 2026-04-17 10:28 | 52.40944 | 13.74611 | 3023 ft | 190 kts | 251° |
| 2026-04-17 10:28 | 52.40507 | 13.72576 | 2912 ft | 188 kts | 254° |
| 2026-04-17 10:28 | 52.40131 | 13.70571 | 2610 ft | 175 kts | 255° |
| 2026-04-17 10:28 | 52.39741 | 13.68784 | 2362 ft | 160 kts | 251° |
| 2026-04-17 10:29 | 52.39352 | 13.67159 | 2137 ft | 146 kts | 250° |
| 2026-04-17 10:29 | 52.38997 | 13.65659 | 1937 ft | 136 kts | 250° |
| 2026-04-17 10:29 | 52.38668 | 13.64263 | 1763 ft | 129 kts | 250° |
| 2026-04-17 10:29 | 52.38344 | 13.62893 | 1587 ft | 129 kts | 250° |
| 2026-04-17 10:30 | 52.38020 | 13.61518 | 1413 ft | 130 kts | 251° |
| 2026-04-17 10:30 | 52.37696 | 13.60142 | 1245 ft | 129 kts | 250° |
| 2026-04-17 10:30 | 52.37371 | 13.58771 | 1057 ft | 130 kts | 251° |
| 2026-04-17 10:30 | 52.37045 | 13.57398 | 855 ft | 129 kts | 252° |
| 2026-04-17 10:31 | 52.36722 | 13.56032 | 682 ft | 129 kts | 252° |
| 2026-04-17 10:31 | 52.36398 | 13.54661 | 488 ft | 129 kts | 252° |
| 2026-04-17 10:31 | 52.36073 | 13.53289 | 331 ft | 130 kts | 252° |
| 2026-04-17 10:31 | 52.35749 | 13.51920 | 173 ft | 126 kts | 250° |
| 2026-04-17 10:32 | 52.35493 | 13.50826 | 163 ft | 66 kts | 250° |
| 2026-04-17 10:32 | 52.35435 | 13.50560 | 161 ft | 0 kts | 283° |
| 2026-04-17 10:32 | 52.35456 | 13.50522 | 160 ft | 15 kts | 332° |
| 2026-04-17 10:32 | 52.35529 | 13.50612 | 159 ft | 14 kts | 52° |
| 2026-04-17 10:33 | 52.35655 | 13.50783 | 154 ft | 29 kts | 43° |
| 2026-04-17 10:33 | 52.35826 | 13.50792 | 155 ft | 23 kts | 342° |
| 2026-04-17 10:33 | 52.35915 | 13.50818 | 157 ft | 7 kts | 70° |
| 2026-04-17 10:33 | 52.35931 | 13.50886 | 158 ft | 7 kts | 69° |
| 2026-04-17 10:34 | 52.35956 | 13.50992 | 160 ft | 14 kts | 68° |
| 2026-04-17 10:34 | 52.36017 | 13.51241 | 158 ft | 27 kts | 68° |
| 2026-04-17 10:34 | 52.36083 | 13.51519 | 158 ft | 22 kts | 70° |
| 2026-04-17 10:34 | 52.36126 | 13.51694 | 158 ft | 8 kts | 54° |
| 2026-04-17 10:35 | 52.36141 | 13.51693 | 159 ft | 6 kts | 339° |
| 2026-04-17 10:35 | 52.36202 | 13.51652 | 158 ft | 0 kts | 339° |